<?xml version="1.0" encoding="UTF-8" standalone="no" ?>
<gpx xmlns="http://www.topografix.com/GPX/1/1" xmlns:xsi="http://www.w3.org/2001/XMLSchema-instance" xsi:schemaLocation="http://www.topografix.com/GPX/1/1 http://www.topografix.com/GPX/1/1/gpx.xsd" version="1.1" creator="VisuGPX - https://www.visugpx.com">
  <metadata>
    <name>1 semaine rando en vallée du Lot et du Célé</name>
    <desc><![CDATA[5 boucle en étoile dans la région de Cabreret - Saint Cirq La Popie (dans le Lot)]]></desc>
  </metadata>
  <trk>
    <name><![CDATA[03' saint cirq la popie - mortayrol 26 km]]></name>
    <trkseg>
      <trkpt lat="44.50615" lon="1.63419">
        <ele>326</ele>
        <time>2018-03-25T23:14:26Z</time>
      </trkpt>
      <trkpt lat="44.50459" lon="1.63566">
        <ele>328</ele>
        <time>2018-03-25T23:13:26Z</time>
      </trkpt>
      <trkpt lat="44.50333" lon="1.63605">
        <ele>326</ele>
        <time>2018-03-25T23:12:26Z</time>
      </trkpt>
      <trkpt lat="44.50123" lon="1.63746">
        <ele>325</ele>
        <time>2018-03-25T23:11:26Z</time>
      </trkpt>
      <trkpt lat="44.50033" lon="1.63684">
        <ele>313</ele>
        <time>2018-03-25T23:10:26Z</time>
      </trkpt>
      <trkpt lat="44.50028" lon="1.63622">
        <ele>306</ele>
        <time>2018-03-25T23:09:26Z</time>
      </trkpt>
      <trkpt lat="44.49924" lon="1.63635">
        <ele>297</ele>
        <time>2018-03-25T23:08:26Z</time>
      </trkpt>
      <trkpt lat="44.49874" lon="1.63548">
        <ele>284</ele>
        <time>2018-03-25T23:07:26Z</time>
      </trkpt>
      <trkpt lat="44.49613" lon="1.63526">
        <ele>264</ele>
        <time>2018-03-25T23:06:26Z</time>
      </trkpt>
      <trkpt lat="44.4943" lon="1.63623">
        <ele>253</ele>
        <time>2018-03-25T23:05:26Z</time>
      </trkpt>
      <trkpt lat="44.49394" lon="1.63717">
        <ele>252</ele>
        <time>2018-03-25T23:04:26Z</time>
      </trkpt>
      <trkpt lat="44.4936" lon="1.63749">
        <ele>249.79296875</ele>
      </trkpt>
      <trkpt lat="44.4934" lon="1.63702">
        <ele>249</ele>
        <time>2018-03-25T23:03:26Z</time>
      </trkpt>
      <trkpt lat="44.49306" lon="1.63654">
        <ele>239</ele>
        <time>2018-03-25T23:02:26Z</time>
      </trkpt>
      <trkpt lat="44.49247" lon="1.63619">
        <ele>228</ele>
        <time>2018-03-25T23:01:26Z</time>
      </trkpt>
      <trkpt lat="44.49186" lon="1.63569">
        <ele>204</ele>
        <time>2018-03-25T23:00:26Z</time>
      </trkpt>
      <trkpt lat="44.49227" lon="1.63519">
        <ele>201</ele>
        <time>2018-03-25T22:59:26Z</time>
      </trkpt>
      <trkpt lat="44.49033" lon="1.63433">
        <ele>173</ele>
        <time>2018-03-25T22:58:26Z</time>
      </trkpt>
      <trkpt lat="44.49009" lon="1.63314">
        <ele>167</ele>
        <time>2018-03-25T22:57:26Z</time>
      </trkpt>
      <trkpt lat="44.49054" lon="1.63282">
        <ele>168</ele>
        <time>2018-03-25T22:56:26Z</time>
      </trkpt>
      <trkpt lat="44.48976" lon="1.63213">
        <ele>159.55859375</ele>
      </trkpt>
      <trkpt lat="44.48941" lon="1.63203">
        <ele>159</ele>
        <time>2018-03-25T22:55:26Z</time>
      </trkpt>
      <trkpt lat="44.48891" lon="1.63215">
        <ele>147.953125</ele>
      </trkpt>
      <trkpt lat="44.4886" lon="1.63204">
        <ele>142</ele>
        <time>2018-03-25T22:54:26Z</time>
      </trkpt>
      <trkpt lat="44.48734" lon="1.6377">
        <ele>144</ele>
        <time>2018-03-25T22:53:26Z</time>
      </trkpt>
      <trkpt lat="44.48739" lon="1.63908">
        <ele>149</ele>
        <time>2018-03-25T22:52:26Z</time>
      </trkpt>
      <trkpt lat="44.48694" lon="1.63971">
        <ele>144</ele>
        <time>2018-03-25T22:51:26Z</time>
      </trkpt>
      <trkpt lat="44.48629" lon="1.6433">
        <ele>161</ele>
        <time>2018-03-25T22:50:26Z</time>
      </trkpt>
      <trkpt lat="44.48507" lon="1.64193">
        <ele>138</ele>
        <time>2018-03-25T22:49:26Z</time>
      </trkpt>
      <trkpt lat="44.48391" lon="1.64371">
        <ele>138</ele>
        <time>2018-03-25T22:48:26Z</time>
      </trkpt>
      <trkpt lat="44.48419" lon="1.64458">
        <ele>135</ele>
        <time>2018-03-25T22:47:26Z</time>
      </trkpt>
      <trkpt lat="44.48329" lon="1.64554">
        <ele>134</ele>
        <time>2018-03-25T22:46:26Z</time>
      </trkpt>
      <trkpt lat="44.48145" lon="1.64606">
        <ele>134</ele>
        <time>2018-03-25T22:45:26Z</time>
      </trkpt>
      <trkpt lat="44.47902" lon="1.64596">
        <ele>163</ele>
        <time>2018-03-25T22:44:26Z</time>
      </trkpt>
      <trkpt lat="44.47808" lon="1.64554">
        <ele>177</ele>
        <time>2018-03-25T22:43:26Z</time>
      </trkpt>
      <trkpt lat="44.47686" lon="1.64561">
        <ele>182</ele>
        <time>2018-03-25T22:42:26Z</time>
      </trkpt>
      <trkpt lat="44.47595" lon="1.64589">
        <ele>208</ele>
        <time>2018-03-25T22:40:26Z</time>
      </trkpt>
      <trkpt lat="44.47538" lon="1.64632">
        <ele>173</ele>
        <time>2018-03-25T22:39:26Z</time>
      </trkpt>
      <trkpt lat="44.47511" lon="1.64626">
        <ele>185</ele>
        <time>2018-03-25T22:38:26Z</time>
      </trkpt>
      <trkpt lat="44.47391" lon="1.64741">
        <ele>188</ele>
        <time>2018-03-25T22:37:26Z</time>
      </trkpt>
      <trkpt lat="44.47351" lon="1.64817">
        <ele>162</ele>
        <time>2018-03-25T22:36:26Z</time>
      </trkpt>
      <trkpt lat="44.47266" lon="1.64899">
        <ele>170</ele>
        <time>2018-03-25T22:35:26Z</time>
      </trkpt>
      <trkpt lat="44.47275" lon="1.64937">
        <ele>154</ele>
        <time>2018-03-25T22:34:26Z</time>
      </trkpt>
      <trkpt lat="44.47137" lon="1.65158">
        <ele>162</ele>
        <time>2018-03-25T22:33:26Z</time>
      </trkpt>
      <trkpt lat="44.47137" lon="1.65121">
        <ele>167</ele>
        <time>2018-03-25T22:32:26Z</time>
      </trkpt>
      <trkpt lat="44.47092" lon="1.65184">
        <ele>173</ele>
        <time>2018-03-25T22:31:26Z</time>
      </trkpt>
      <trkpt lat="44.46961" lon="1.65123">
        <ele>196</ele>
        <time>2018-03-25T22:30:26Z</time>
      </trkpt>
      <trkpt lat="44.46962" lon="1.65249">
        <ele>193</ele>
        <time>2018-03-25T22:29:26Z</time>
      </trkpt>
      <trkpt lat="44.46932" lon="1.65412">
        <ele>199</ele>
        <time>2018-03-25T22:28:26Z</time>
      </trkpt>
      <trkpt lat="44.46924" lon="1.65619">
        <ele>194</ele>
        <time>2018-03-25T22:27:26Z</time>
      </trkpt>
      <trkpt lat="44.4684" lon="1.65903">
        <ele>192</ele>
        <time>2018-03-25T22:26:26Z</time>
      </trkpt>
      <trkpt lat="44.46744" lon="1.66281">
        <ele>229</ele>
        <time>2018-03-25T22:25:26Z</time>
      </trkpt>
      <trkpt lat="44.46731" lon="1.6635">
        <ele>230</ele>
        <time>2018-03-25T22:24:26Z</time>
      </trkpt>
      <trkpt lat="44.46704" lon="1.66382">
        <ele>236</ele>
        <time>2018-03-25T22:23:26Z</time>
      </trkpt>
      <trkpt lat="44.4665" lon="1.6637">
        <ele>253</ele>
        <time>2018-03-25T22:22:26Z</time>
      </trkpt>
      <trkpt lat="44.46637" lon="1.66489">
        <ele>256</ele>
        <time>2018-03-25T22:21:26Z</time>
      </trkpt>
      <trkpt lat="44.46647" lon="1.66571">
        <ele>245</ele>
        <time>2018-03-25T22:20:26Z</time>
      </trkpt>
      <trkpt lat="44.46602" lon="1.66572">
        <ele>253</ele>
        <time>2018-03-25T22:19:26Z</time>
      </trkpt>
      <trkpt lat="44.46517" lon="1.6661">
        <ele>267</ele>
        <time>2018-03-25T22:18:26Z</time>
      </trkpt>
      <trkpt lat="44.46517" lon="1.66686">
        <ele>240</ele>
        <time>2018-03-25T22:17:26Z</time>
      </trkpt>
      <trkpt lat="44.46473" lon="1.66774">
        <ele>231</ele>
        <time>2018-03-25T22:16:26Z</time>
      </trkpt>
      <trkpt lat="44.46415" lon="1.66765">
        <ele>246.71484375</ele>
      </trkpt>
      <trkpt lat="44.46414" lon="1.66786">
        <ele>240.34375</ele>
      </trkpt>
      <trkpt lat="44.46408" lon="1.66812">
        <ele>236.3828125</ele>
      </trkpt>
      <trkpt lat="44.46419" lon="1.66818">
        <ele>233.30859375</ele>
      </trkpt>
      <trkpt lat="44.46456" lon="1.66875">
        <ele>221.04296875</ele>
      </trkpt>
      <trkpt lat="44.46461" lon="1.66947">
        <ele>217.00390625</ele>
      </trkpt>
      <trkpt lat="44.46463" lon="1.66969">
        <ele>212.7421875</ele>
      </trkpt>
      <trkpt lat="44.46471" lon="1.67009">
        <ele>201.6484375</ele>
      </trkpt>
      <trkpt lat="44.46466" lon="1.67021">
        <ele>200.6328125</ele>
      </trkpt>
      <trkpt lat="44.46456" lon="1.67027">
        <ele>204.29296875</ele>
      </trkpt>
      <trkpt lat="44.46432" lon="1.67112">
        <ele>186.671875</ele>
      </trkpt>
      <trkpt lat="44.4643" lon="1.67168">
        <ele>176.58203125</ele>
      </trkpt>
      <trkpt lat="44.46438" lon="1.672">
        <ele>171.94921875</ele>
      </trkpt>
      <trkpt lat="44.46463" lon="1.67239">
        <ele>162.7578125</ele>
      </trkpt>
      <trkpt lat="44.4648" lon="1.67272">
        <ele>162.578125</ele>
      </trkpt>
      <trkpt lat="44.4649" lon="1.67294">
        <ele>162.28515625</ele>
      </trkpt>
      <trkpt lat="44.46497" lon="1.67301">
        <ele>161.03125</ele>
      </trkpt>
      <trkpt lat="44.46507" lon="1.67332">
        <ele>178</ele>
        <time>2018-03-25T22:08:26Z</time>
      </trkpt>
      <trkpt lat="44.46567" lon="1.67526">
        <ele>170</ele>
        <time>2018-03-25T22:07:26Z</time>
      </trkpt>
      <trkpt lat="44.46644" lon="1.6767">
        <ele>162</ele>
        <time>2018-03-25T22:06:26Z</time>
      </trkpt>
      <trkpt lat="44.466" lon="1.67752">
        <ele>169</ele>
        <time>2018-03-25T22:05:26Z</time>
      </trkpt>
      <trkpt lat="44.46605" lon="1.67834">
        <ele>166</ele>
        <time>2018-03-25T22:04:26Z</time>
      </trkpt>
      <trkpt lat="44.46677" lon="1.67908">
        <ele>157</ele>
        <time>2018-03-25T22:03:26Z</time>
      </trkpt>
      <trkpt lat="44.46763" lon="1.6792">
        <ele>151</ele>
        <time>2018-03-25T22:02:26Z</time>
      </trkpt>
      <trkpt lat="44.46885" lon="1.68075">
        <ele>144</ele>
        <time>2018-03-25T22:01:26Z</time>
      </trkpt>
      <trkpt lat="44.46967" lon="1.68374">
        <ele>129.3515625</ele>
      </trkpt>
      <trkpt lat="44.46994" lon="1.68508">
        <ele>134.328125</ele>
      </trkpt>
      <trkpt lat="44.47" lon="1.6856">
        <ele>134.94921875</ele>
      </trkpt>
      <trkpt lat="44.46944" lon="1.68737">
        <ele>135.5546875</ele>
      </trkpt>
      <trkpt lat="44.46914" lon="1.68836">
        <ele>136.3046875</ele>
      </trkpt>
      <trkpt lat="44.46901" lon="1.6887">
        <ele>136.48046875</ele>
      </trkpt>
      <trkpt lat="44.46861" lon="1.68872">
        <ele>135.10546875</ele>
      </trkpt>
      <trkpt lat="44.46777" lon="1.68942">
        <ele>134.5703125</ele>
      </trkpt>
      <trkpt lat="44.46739" lon="1.68976">
        <ele>134.890625</ele>
      </trkpt>
      <trkpt lat="44.4668" lon="1.69023">
        <ele>135.2734375</ele>
      </trkpt>
      <trkpt lat="44.46685" lon="1.69052">
        <ele>135.8046875</ele>
      </trkpt>
      <trkpt lat="44.46653" lon="1.69088">
        <ele>136.16796875</ele>
      </trkpt>
      <trkpt lat="44.46667" lon="1.69127">
        <ele>137.27734375</ele>
      </trkpt>
      <trkpt lat="44.46687" lon="1.69111">
        <ele>136.9765625</ele>
      </trkpt>
      <trkpt lat="44.4672" lon="1.69181">
        <ele>139.12109375</ele>
      </trkpt>
      <trkpt lat="44.4664" lon="1.69293">
        <ele>142.23046875</ele>
      </trkpt>
      <trkpt lat="44.46597" lon="1.69392">
        <ele>144.9140625</ele>
      </trkpt>
      <trkpt lat="44.46622" lon="1.69428">
        <ele>145.56640625</ele>
      </trkpt>
      <trkpt lat="44.46626" lon="1.69439">
        <ele>145.78125</ele>
      </trkpt>
      <trkpt lat="44.46648" lon="1.69452">
        <ele>146.41015625</ele>
      </trkpt>
      <trkpt lat="44.46702" lon="1.69532">
        <ele>154.0859375</ele>
      </trkpt>
      <trkpt lat="44.46725" lon="1.69556">
        <ele>159.5703125</ele>
      </trkpt>
      <trkpt lat="44.46755" lon="1.69574">
        <ele>168.37890625</ele>
      </trkpt>
      <trkpt lat="44.46777" lon="1.69584">
        <ele>175.58203125</ele>
      </trkpt>
      <trkpt lat="44.46777" lon="1.69618">
        <ele>182.8984375</ele>
      </trkpt>
      <trkpt lat="44.46856" lon="1.69805">
        <ele>230.046875</ele>
      </trkpt>
      <trkpt lat="44.46971" lon="1.69873">
        <ele>257.99609375</ele>
      </trkpt>
      <trkpt lat="44.47034" lon="1.6987">
        <ele>262.40234375</ele>
      </trkpt>
      <trkpt lat="44.47151" lon="1.69836">
        <ele>281.421875</ele>
      </trkpt>
      <trkpt lat="44.47206" lon="1.69886">
        <ele>287.33203125</ele>
      </trkpt>
      <trkpt lat="44.47266" lon="1.69906">
        <ele>296.87109375</ele>
      </trkpt>
      <trkpt lat="44.47294" lon="1.69925">
        <ele>299.98046875</ele>
      </trkpt>
      <trkpt lat="44.47397" lon="1.69964">
        <ele>306.2890625</ele>
      </trkpt>
      <trkpt lat="44.47528" lon="1.69943">
        <ele>308.2890625</ele>
      </trkpt>
      <trkpt lat="44.47675" lon="1.69906">
        <ele>308.3359375</ele>
      </trkpt>
      <trkpt lat="44.47745" lon="1.69883">
        <ele>307.16796875</ele>
      </trkpt>
      <trkpt lat="44.47819" lon="1.6988">
        <ele>308.68359375</ele>
      </trkpt>
      <trkpt lat="44.47871" lon="1.69883">
        <ele>313.921875</ele>
      </trkpt>
      <trkpt lat="44.47903" lon="1.69854">
        <ele>313.57421875</ele>
      </trkpt>
      <trkpt lat="44.4804" lon="1.69779">
        <ele>328.80078125</ele>
      </trkpt>
      <trkpt lat="44.48063" lon="1.6973">
        <ele>330.390625</ele>
      </trkpt>
      <trkpt lat="44.48119" lon="1.69649">
        <ele>334.87109375</ele>
      </trkpt>
      <trkpt lat="44.48139" lon="1.69669">
        <ele>339.79296875</ele>
      </trkpt>
      <trkpt lat="44.48342" lon="1.69522">
        <ele>325</ele>
        <time>2018-03-25T21:37:26Z</time>
      </trkpt>
      <trkpt lat="44.48382" lon="1.69558">
        <ele>324.5625</ele>
      </trkpt>
      <trkpt lat="44.4843" lon="1.69553">
        <ele>324.0625</ele>
      </trkpt>
      <trkpt lat="44.48495" lon="1.69545">
        <ele>322.89453125</ele>
      </trkpt>
      <trkpt lat="44.48549" lon="1.6955">
        <ele>324.0390625</ele>
      </trkpt>
      <trkpt lat="44.48574" lon="1.69537">
        <ele>324.296875</ele>
      </trkpt>
      <trkpt lat="44.48595" lon="1.69493">
        <ele>323.61328125</ele>
      </trkpt>
      <trkpt lat="44.48601" lon="1.6947">
        <ele>323.10546875</ele>
      </trkpt>
      <trkpt lat="44.48599" lon="1.69371">
        <ele>320.70703125</ele>
      </trkpt>
      <trkpt lat="44.4861" lon="1.69327">
        <ele>319.25390625</ele>
      </trkpt>
      <trkpt lat="44.48685" lon="1.69238">
        <ele>313.93359375</ele>
      </trkpt>
      <trkpt lat="44.48752" lon="1.69176">
        <ele>307.08203125</ele>
      </trkpt>
      <trkpt lat="44.4877" lon="1.69161">
        <ele>305.55859375</ele>
      </trkpt>
      <trkpt lat="44.48834" lon="1.6914">
        <ele>301.82421875</ele>
      </trkpt>
      <trkpt lat="44.4889" lon="1.69127">
        <ele>299.62109375</ele>
      </trkpt>
      <trkpt lat="44.48955" lon="1.6914">
        <ele>302.05859375</ele>
      </trkpt>
      <trkpt lat="44.49016" lon="1.69179">
        <ele>305.12890625</ele>
      </trkpt>
      <trkpt lat="44.49039" lon="1.6921">
        <ele>306.22265625</ele>
      </trkpt>
      <trkpt lat="44.4908" lon="1.69244">
        <ele>306</ele>
      </trkpt>
      <trkpt lat="44.49124" lon="1.6929">
        <ele>306.34765625</ele>
      </trkpt>
      <trkpt lat="44.49185" lon="1.69298">
        <ele>302.08203125</ele>
      </trkpt>
      <trkpt lat="44.49239" lon="1.69335">
        <ele>297.42578125</ele>
      </trkpt>
      <trkpt lat="44.49267" lon="1.69358">
        <ele>293.94921875</ele>
      </trkpt>
      <trkpt lat="44.49309" lon="1.69426">
        <ele>290.91015625</ele>
      </trkpt>
      <trkpt lat="44.49325" lon="1.69457">
        <ele>289.39453125</ele>
      </trkpt>
      <trkpt lat="44.49366" lon="1.69501">
        <ele>283.84375</ele>
      </trkpt>
      <trkpt lat="44.49411" lon="1.69522">
        <ele>280.75390625</ele>
      </trkpt>
      <trkpt lat="44.49445" lon="1.69501">
        <ele>281.109375</ele>
      </trkpt>
      <trkpt lat="44.49526" lon="1.69511">
        <ele>276.42578125</ele>
      </trkpt>
      <trkpt lat="44.49657" lon="1.69519">
        <ele>266.9609375</ele>
      </trkpt>
      <trkpt lat="44.49736" lon="1.69475">
        <ele>262.8828125</ele>
      </trkpt>
      <trkpt lat="44.49842" lon="1.69306">
        <ele>256.8828125</ele>
      </trkpt>
      <trkpt lat="44.49862" lon="1.69251">
        <ele>258.078125</ele>
      </trkpt>
      <trkpt lat="44.49928" lon="1.68989">
        <ele>248.859375</ele>
      </trkpt>
      <trkpt lat="44.4993" lon="1.68942">
        <ele>247.54296875</ele>
      </trkpt>
      <trkpt lat="44.49948" lon="1.68901">
        <ele>247.80078125</ele>
      </trkpt>
      <trkpt lat="44.49979" lon="1.68924">
        <ele>249.53515625</ele>
      </trkpt>
      <trkpt lat="44.50016" lon="1.68934">
        <ele>251.34375</ele>
      </trkpt>
      <trkpt lat="44.50072" lon="1.69028">
        <ele>256.609375</ele>
      </trkpt>
      <trkpt lat="44.50094" lon="1.69124">
        <ele>259.59765625</ele>
      </trkpt>
      <trkpt lat="44.50128" lon="1.69225">
        <ele>261.2890625</ele>
      </trkpt>
      <trkpt lat="44.50114" lon="1.69153">
        <ele>259.75390625</ele>
      </trkpt>
      <trkpt lat="44.50112" lon="1.69093">
        <ele>258.23828125</ele>
      </trkpt>
      <trkpt lat="44.50101" lon="1.69018">
        <ele>255.71875</ele>
      </trkpt>
      <trkpt lat="44.50083" lon="1.68984">
        <ele>254.34375</ele>
      </trkpt>
      <trkpt lat="44.49975" lon="1.68859">
        <ele>247.34375</ele>
      </trkpt>
      <trkpt lat="44.49943" lon="1.68719">
        <ele>246.71484375</ele>
      </trkpt>
      <trkpt lat="44.49941" lon="1.68675">
        <ele>247.24609375</ele>
      </trkpt>
      <trkpt lat="44.49914" lon="1.6856">
        <ele>249.51953125</ele>
      </trkpt>
      <trkpt lat="44.49741" lon="1.68671">
        <ele>248.52734375</ele>
      </trkpt>
      <trkpt lat="44.49583" lon="1.68525">
        <ele>258.91015625</ele>
      </trkpt>
      <trkpt lat="44.49523" lon="1.68473">
        <ele>263.14453125</ele>
      </trkpt>
      <trkpt lat="44.49439" lon="1.68429">
        <ele>269.96484375</ele>
      </trkpt>
      <trkpt lat="44.49328" lon="1.68263">
        <ele>278.59375</ele>
      </trkpt>
      <trkpt lat="44.49265" lon="1.68185">
        <ele>282.4765625</ele>
      </trkpt>
      <trkpt lat="44.49191" lon="1.68148">
        <ele>291</ele>
      </trkpt>
      <trkpt lat="44.49124" lon="1.68083">
        <ele>298.2890625</ele>
      </trkpt>
      <trkpt lat="44.49101" lon="1.67946">
        <ele>302.98828125</ele>
      </trkpt>
      <trkpt lat="44.4909" lon="1.67878">
        <ele>305.79296875</ele>
      </trkpt>
      <trkpt lat="44.48966" lon="1.67639">
        <ele>315.5625</ele>
      </trkpt>
      <trkpt lat="44.48979" lon="1.67556">
        <ele>314.0703125</ele>
      </trkpt>
      <trkpt lat="44.48974" lon="1.67522">
        <ele>316.4921875</ele>
      </trkpt>
      <trkpt lat="44.48512" lon="1.67296">
        <ele>313.83984375</ele>
      </trkpt>
      <trkpt lat="44.48226" lon="1.67421">
        <ele>296.44140625</ele>
      </trkpt>
      <trkpt lat="44.48205" lon="1.67442">
        <ele>296.796875</ele>
      </trkpt>
      <trkpt lat="44.48118" lon="1.67457">
        <ele>300.11328125</ele>
      </trkpt>
      <trkpt lat="44.48108" lon="1.67475">
        <ele>300.27734375</ele>
      </trkpt>
      <trkpt lat="44.481" lon="1.67532">
        <ele>300.1484375</ele>
      </trkpt>
      <trkpt lat="44.48063" lon="1.67621">
        <ele>303.8984375</ele>
      </trkpt>
      <trkpt lat="44.48039" lon="1.67662">
        <ele>303.50390625</ele>
      </trkpt>
      <trkpt lat="44.48012" lon="1.67675">
        <ele>303.9921875</ele>
      </trkpt>
      <trkpt lat="44.47994" lon="1.67773">
        <ele>301</ele>
        <time>2018-03-25T21:33:26Z</time>
      </trkpt>
      <trkpt lat="44.47992" lon="1.67428">
        <ele>299</ele>
        <time>2018-03-25T21:32:26Z</time>
      </trkpt>
      <trkpt lat="44.4803" lon="1.67113">
        <ele>287</ele>
        <time>2018-03-25T21:31:26Z</time>
      </trkpt>
      <trkpt lat="44.47871" lon="1.66732">
        <ele>282</ele>
        <time>2018-03-25T21:30:26Z</time>
      </trkpt>
      <trkpt lat="44.47727" lon="1.6669">
        <ele>276</ele>
        <time>2018-03-25T21:29:26Z</time>
      </trkpt>
      <trkpt lat="44.47622" lon="1.66572">
        <ele>273</ele>
        <time>2018-03-25T21:28:26Z</time>
      </trkpt>
      <trkpt lat="44.47554" lon="1.66435">
        <ele>267</ele>
        <time>2018-03-25T21:27:26Z</time>
      </trkpt>
      <trkpt lat="44.47571" lon="1.66302">
        <ele>271</ele>
        <time>2018-03-25T21:26:26Z</time>
      </trkpt>
      <trkpt lat="44.47629" lon="1.66252">
        <ele>268</ele>
        <time>2018-03-25T21:25:26Z</time>
      </trkpt>
      <trkpt lat="44.47774" lon="1.66275">
        <ele>262</ele>
        <time>2018-03-25T21:24:26Z</time>
      </trkpt>
      <trkpt lat="44.47841" lon="1.66312">
        <ele>259</ele>
        <time>2018-03-25T21:23:26Z</time>
      </trkpt>
      <trkpt lat="44.47768" lon="1.66187">
        <ele>244</ele>
        <time>2018-03-25T21:22:26Z</time>
      </trkpt>
      <trkpt lat="44.47651" lon="1.66069">
        <ele>237</ele>
        <time>2018-03-25T21:21:26Z</time>
      </trkpt>
      <trkpt lat="44.47587" lon="1.65944">
        <ele>225</ele>
        <time>2018-03-25T21:20:26Z</time>
      </trkpt>
      <trkpt lat="44.4751" lon="1.65882">
        <ele>218</ele>
        <time>2018-03-25T21:19:26Z</time>
      </trkpt>
      <trkpt lat="44.47487" lon="1.65832">
        <ele>207</ele>
        <time>2018-03-25T21:18:26Z</time>
      </trkpt>
      <trkpt lat="44.4751" lon="1.65763">
        <ele>206</ele>
        <time>2018-03-25T21:17:26Z</time>
      </trkpt>
      <trkpt lat="44.4749" lon="1.65481">
        <ele>180</ele>
        <time>2018-03-25T21:16:26Z</time>
      </trkpt>
      <trkpt lat="44.4744" lon="1.65469">
        <ele>159</ele>
        <time>2018-03-25T21:15:26Z</time>
      </trkpt>
      <trkpt lat="44.47489" lon="1.65418">
        <ele>172</ele>
        <time>2018-03-25T21:14:26Z</time>
      </trkpt>
      <trkpt lat="44.47467" lon="1.65355">
        <ele>159</ele>
        <time>2018-03-25T21:13:26Z</time>
      </trkpt>
      <trkpt lat="44.47408" lon="1.65344">
        <ele>142</ele>
        <time>2018-03-25T21:12:26Z</time>
      </trkpt>
      <trkpt lat="44.47416" lon="1.65136">
        <ele>141</ele>
        <time>2018-03-25T21:11:26Z</time>
      </trkpt>
      <trkpt lat="44.47452" lon="1.65123">
        <ele>142</ele>
        <time>2018-03-25T21:10:26Z</time>
      </trkpt>
      <trkpt lat="44.47561" lon="1.65291">
        <ele>152</ele>
        <time>2018-03-25T21:09:26Z</time>
      </trkpt>
      <trkpt lat="44.47927" lon="1.64923">
        <ele>140</ele>
        <time>2018-03-25T21:08:26Z</time>
      </trkpt>
      <trkpt lat="44.47901" lon="1.65017">
        <ele>146</ele>
        <time>2018-03-25T21:07:26Z</time>
      </trkpt>
      <trkpt lat="44.47901" lon="1.65093">
        <ele>143</ele>
        <time>2018-03-25T21:06:26Z</time>
      </trkpt>
      <trkpt lat="44.48103" lon="1.65015">
        <ele>155</ele>
        <time>2018-03-25T21:05:26Z</time>
      </trkpt>
      <trkpt lat="44.48206" lon="1.64932">
        <ele>169</ele>
        <time>2018-03-25T21:04:26Z</time>
      </trkpt>
      <trkpt lat="44.48251" lon="1.6495">
        <ele>171</ele>
        <time>2018-03-25T21:03:26Z</time>
      </trkpt>
      <trkpt lat="44.48367" lon="1.64867">
        <ele>192</ele>
        <time>2018-03-25T21:02:26Z</time>
      </trkpt>
      <trkpt lat="44.48399" lon="1.64917">
        <ele>199</ele>
        <time>2018-03-25T21:01:26Z</time>
      </trkpt>
      <trkpt lat="44.48471" lon="1.64872">
        <ele>215</ele>
        <time>2018-03-25T21:00:26Z</time>
      </trkpt>
      <trkpt lat="44.48497" lon="1.64815">
        <ele>227</ele>
        <time>2018-03-25T20:59:26Z</time>
      </trkpt>
      <trkpt lat="44.48547" lon="1.64852">
        <ele>233</ele>
        <time>2018-03-25T20:58:26Z</time>
      </trkpt>
      <trkpt lat="44.48592" lon="1.64783">
        <ele>246</ele>
        <time>2018-03-25T20:57:26Z</time>
      </trkpt>
      <trkpt lat="44.48898" lon="1.64879">
        <ele>274</ele>
        <time>2018-03-25T20:56:26Z</time>
      </trkpt>
      <trkpt lat="44.49217" lon="1.64806">
        <ele>264</ele>
        <time>2018-03-25T20:55:26Z</time>
      </trkpt>
      <trkpt lat="44.49415" lon="1.64791">
        <ele>264</ele>
        <time>2018-03-25T20:54:26Z</time>
      </trkpt>
      <trkpt lat="44.49446" lon="1.64716">
        <ele>266</ele>
        <time>2018-03-25T20:53:26Z</time>
      </trkpt>
      <trkpt lat="44.49386" lon="1.64572">
        <ele>257</ele>
        <time>2018-03-25T20:52:26Z</time>
      </trkpt>
      <trkpt lat="44.49381" lon="1.64509">
        <ele>255</ele>
        <time>2018-03-25T20:51:26Z</time>
      </trkpt>
      <trkpt lat="44.49317" lon="1.64359">
        <ele>255</ele>
        <time>2018-03-25T20:50:26Z</time>
      </trkpt>
      <trkpt lat="44.49434" lon="1.64351">
        <ele>276</ele>
        <time>2018-03-25T20:49:26Z</time>
      </trkpt>
      <trkpt lat="44.49717" lon="1.64222">
        <ele>317</ele>
        <time>2018-03-25T20:48:26Z</time>
      </trkpt>
      <trkpt lat="44.49726" lon="1.64272">
        <ele>315</ele>
        <time>2018-03-25T20:47:26Z</time>
      </trkpt>
      <trkpt lat="44.49816" lon="1.64315">
        <ele>322</ele>
        <time>2018-03-25T20:46:26Z</time>
      </trkpt>
      <trkpt lat="44.49848" lon="1.64378">
        <ele>326</ele>
        <time>2018-03-25T20:45:26Z</time>
      </trkpt>
      <trkpt lat="44.50098" lon="1.63991">
        <ele>344</ele>
        <time>2018-03-25T20:44:26Z</time>
      </trkpt>
      <trkpt lat="44.50549" lon="1.63628">
        <ele>336</ele>
        <time>2018-03-25T20:43:26Z</time>
      </trkpt>
      <trkpt lat="44.5066" lon="1.63406">
        <ele>324</ele>
        <time>2018-03-25T20:42:26Z</time>
      </trkpt>
    </trkseg>
  </trk>
</gpx>